sensor_id;sensor_type;location;lat;lon;timestamp;P1;durP1;ratioP1;P2;durP2;ratioP2
48403;SDS011;34202;52.536;6.042;2023-11-22T00:02:31;15.40;;;10.80;;
48403;SDS011;34202;52.536;6.042;2023-11-22T00:07:32;15.40;;;11.30;;
48403;SDS011;34202;52.536;6.042;2023-11-22T00:12:33;17.40;;;11.90;;
48403;SDS011;34202;52.536;6.042;2023-11-22T00:17:38;14.60;;;11.40;;
48403;SDS011;34202;52.536;6.042;2023-11-22T00:22:38;15.50;;;12.40;;
48403;SDS011;34202;52.536;6.042;2023-11-22T00:27:39;17.80;;;13.10;;
48403;SDS011;34202;52.536;6.042;2023-11-22T00:32:39;18.90;;;13.90;;
48403;SDS011;34202;52.536;6.042;2023-11-22T00:37:43;17.30;;;12.00;;
48403;SDS011;34202;52.536;6.042;2023-11-22T00:42:43;19.50;;;12.00;;
48403;SDS011;34202;52.536;6.042;2023-11-22T00:47:44;15.30;;;11.80;;
48403;SDS011;34202;52.536;6.042;2023-11-22T00:52:44;19.40;;;13.10;;
48403;SDS011;34202;52.536;6.042;2023-11-22T00:57:45;15.20;;;11.50;;
48403;SDS011;34202;52.536;6.042;2023-11-22T01:02:45;19.00;;;13.00;;
48403;SDS011;34202;52.536;6.042;2023-11-22T01:07:46;16.80;;;11.90;;
48403;SDS011;34202;52.536;6.042;2023-11-22T01:12:46;16.70;;;12.30;;
48403;SDS011;34202;52.536;6.042;2023-11-22T01:17:48;15.90;;;11.30;;
48403;SDS011;34202;52.536;6.042;2023-11-22T01:22:49;13.40;;;9.70;;
48403;SDS011;34202;52.536;6.042;2023-11-22T01:27:50;17.90;;;13.30;;
48403;SDS011;34202;52.536;6.042;2023-11-22T01:32:50;15.90;;;11.70;;
48403;SDS011;34202;52.536;6.042;2023-11-22T01:37:51;15.60;;;10.90;;
48403;SDS011;34202;52.536;6.042;2023-11-22T01:42:51;18.00;;;11.10;;
48403;SDS011;34202;52.536;6.042;2023-11-22T01:47:54;13.20;;;10.30;;
48403;SDS011;34202;52.536;6.042;2023-11-22T01:52:55;18.10;;;11.80;;
48403;SDS011;34202;52.536;6.042;2023-11-22T01:57:56;15.30;;;10.80;;
48403;SDS011;34202;52.536;6.042;2023-11-22T02:02:56;14.50;;;11.60;;
48403;SDS011;34202;52.536;6.042;2023-11-22T02:07:57;14.40;;;10.20;;
48403;SDS011;34202;52.536;6.042;2023-11-22T02:12:57;12.80;;;9.20;;
48403;SDS011;34202;52.536;6.042;2023-11-22T02:17:58;16.40;;;11.50;;
48403;SDS011;34202;52.536;6.042;2023-11-22T02:23:07;15.30;;;9.70;;
48403;SDS011;34202;52.536;6.042;2023-11-22T02:28:11;14.70;;;10.90;;
48403;SDS011;34202;52.536;6.042;2023-11-22T02:33:12;14.30;;;10.70;;
48403;SDS011;34202;52.536;6.042;2023-11-22T02:38:12;13.60;;;10.10;;
48403;SDS011;34202;52.536;6.042;2023-11-22T02:43:13;13.50;;;9.60;;
48403;SDS011;34202;52.536;6.042;2023-11-22T02:48:13;13.80;;;9.60;;
48403;SDS011;34202;52.536;6.042;2023-11-22T02:53:14;14.00;;;10.00;;
48403;SDS011;34202;52.536;6.042;2023-11-22T02:58:14;17.00;;;10.80;;
48403;SDS011;34202;52.536;6.042;2023-11-22T03:03:16;13.90;;;10.30;;
48403;SDS011;34202;52.536;6.042;2023-11-22T03:08:17;16.00;;;9.60;;
48403;SDS011;34202;52.536;6.042;2023-11-22T03:13:18;14.10;;;9.60;;
48403;SDS011;34202;52.536;6.042;2023-11-22T03:18:18;13.30;;;10.10;;
48403;SDS011;34202;52.536;6.042;2023-11-22T03:23:20;13.80;;;9.10;;
48403;SDS011;34202;52.536;6.042;2023-11-22T03:28:21;16.10;;;10.20;;
48403;SDS011;34202;52.536;6.042;2023-11-22T03:33:22;13.10;;;9.60;;
48403;SDS011;34202;52.536;6.042;2023-11-22T03:38:22;16.60;;;10.30;;
48403;SDS011;34202;52.536;6.042;2023-11-22T03:43:24;18.80;;;11.50;;
48403;SDS011;34202;52.536;6.042;2023-11-22T03:48:24;17.60;;;11.00;;
48403;SDS011;34202;52.536;6.042;2023-11-22T03:53:26;17.60;;;10.40;;
48403;SDS011;34202;52.536;6.042;2023-11-22T03:58:26;20.80;;;11.40;;
48403;SDS011;34202;52.536;6.042;2023-11-22T04:03:27;18.10;;;12.10;;
48403;SDS011;34202;52.536;6.042;2023-11-22T04:08:28;17.70;;;11.20;;
48403;SDS011;34202;52.536;6.042;2023-11-22T04:13:28;19.10;;;11.80;;
48403;SDS011;34202;52.536;6.042;2023-11-22T04:18:29;19.20;;;10.80;;
48403;SDS011;34202;52.536;6.042;2023-11-22T04:23:30;15.90;;;10.60;;
48403;SDS011;34202;52.536;6.042;2023-11-22T04:28:32;15.30;;;10.50;;
48403;SDS011;34202;52.536;6.042;2023-11-22T04:33:33;14.60;;;10.50;;
48403;SDS011;34202;52.536;6.042;2023-11-22T04:38:33;16.50;;;10.70;;
48403;SDS011;34202;52.536;6.042;2023-11-22T04:43:34;15.10;;;10.10;;
48403;SDS011;34202;52.536;6.042;2023-11-22T04:48:34;18.00;;;10.40;;
48403;SDS011;34202;52.536;6.042;2023-11-22T04:53:36;18.00;;;11.20;;
48403;SDS011;34202;52.536;6.042;2023-11-22T04:58:37;16.80;;;11.20;;
48403;SDS011;34202;52.536;6.042;2023-11-22T05:03:37;19.50;;;11.10;;
48403;SDS011;34202;52.536;6.042;2023-11-22T05:08:38;19.90;;;12.10;;
48403;SDS011;34202;52.536;6.042;2023-11-22T05:13:38;16.10;;;11.10;;
48403;SDS011;34202;52.536;6.042;2023-11-22T05:18:38;17.30;;;12.70;;
48403;SDS011;34202;52.536;6.042;2023-11-22T05:23:39;20.30;;;12.20;;
48403;SDS011;34202;52.536;6.042;2023-11-22T05:28:39;17.30;;;12.20;;
48403;SDS011;34202;52.536;6.042;2023-11-22T05:33:40;20.50;;;13.50;;
48403;SDS011;34202;52.536;6.042;2023-11-22T05:38:40;20.50;;;12.50;;
48403;SDS011;34202;52.536;6.042;2023-11-22T05:43:41;20.10;;;12.80;;
48403;SDS011;34202;52.536;6.042;2023-11-22T05:48:42;18.70;;;11.80;;
48403;SDS011;34202;52.536;6.042;2023-11-22T05:53:43;23.40;;;12.50;;
48403;SDS011;34202;52.536;6.042;2023-11-22T05:58:43;17.00;;;11.60;;
48403;SDS011;34202;52.536;6.042;2023-11-22T06:03:44;16.50;;;11.30;;
48403;SDS011;34202;52.536;6.042;2023-11-22T06:08:44;16.60;;;12.30;;
48403;SDS011;34202;52.536;6.042;2023-11-22T06:13:44;17.10;;;11.50;;
48403;SDS011;34202;52.536;6.042;2023-11-22T06:18:47;18.00;;;12.10;;
48403;SDS011;34202;52.536;6.042;2023-11-22T06:23:47;17.80;;;12.00;;
48403;SDS011;34202;52.536;6.042;2023-11-22T06:28:50;18.10;;;10.90;;
48403;SDS011;34202;52.536;6.042;2023-11-22T06:33:50;19.90;;;12.70;;
48403;SDS011;34202;52.536;6.042;2023-11-22T06:38:52;24.90;;;13.30;;
48403;SDS011;34202;52.536;6.042;2023-11-22T06:43:52;20.70;;;12.60;;
48403;SDS011;34202;52.536;6.042;2023-11-22T06:48:53;21.60;;;13.80;;
48403;SDS011;34202;52.536;6.042;2023-11-22T06:53:53;21.50;;;14.40;;
48403;SDS011;34202;52.536;6.042;2023-11-22T06:58:54;21.40;;;13.90;;
48403;SDS011;34202;52.536;6.042;2023-11-22T07:03:57;24.40;;;15.50;;
48403;SDS011;34202;52.536;6.042;2023-11-22T07:08:57;25.50;;;14.80;;
48403;SDS011;34202;52.536;6.042;2023-11-22T07:13:59;20.30;;;14.70;;
48403;SDS011;34202;52.536;6.042;2023-11-22T07:19:00;25.20;;;15.60;;
48403;SDS011;34202;52.536;6.042;2023-11-22T07:24:03;25.80;;;14.90;;
48403;SDS011;34202;52.536;6.042;2023-11-22T07:29:06;26.40;;;15.20;;
48403;SDS011;34202;52.536;6.042;2023-11-22T07:34:07;25.10;;;16.10;;
48403;SDS011;34202;52.536;6.042;2023-11-22T07:39:08;24.00;;;14.90;;
48403;SDS011;34202;52.536;6.042;2023-11-22T07:44:11;23.20;;;14.40;;
48403;SDS011;34202;52.536;6.042;2023-11-22T07:49:12;24.90;;;15.10;;
48403;SDS011;34202;52.536;6.042;2023-11-22T07:54:13;25.80;;;16.20;;
48403;SDS011;34202;52.536;6.042;2023-11-22T07:59:17;25.00;;;16.00;;
48403;SDS011;34202;52.536;6.042;2023-11-22T08:04:18;27.80;;;15.50;;
48403;SDS011;34202;52.536;6.042;2023-11-22T08:09:19;20.20;;;14.10;;
48403;SDS011;34202;52.536;6.042;2023-11-22T08:14:19;23.80;;;16.60;;
48403;SDS011;34202;52.536;6.042;2023-11-22T08:19:21;23.80;;;16.00;;
48403;SDS011;34202;52.536;6.042;2023-11-22T08:24:24;24.90;;;17.50;;
48403;SDS011;34202;52.536;6.042;2023-11-22T08:29:25;23.70;;;15.90;;
48403;SDS011;34202;52.536;6.042;2023-11-22T08:34:25;26.10;;;16.00;;
48403;SDS011;34202;52.536;6.042;2023-11-22T08:39:25;26.40;;;17.50;;
48403;SDS011;34202;52.536;6.042;2023-11-22T08:44:27;25.20;;;15.80;;
48403;SDS011;34202;52.536;6.042;2023-11-22T08:49:27;24.10;;;15.60;;
48403;SDS011;34202;52.536;6.042;2023-11-22T08:54:27;24.50;;;16.70;;
48403;SDS011;34202;52.536;6.042;2023-11-22T08:59:28;26.30;;;16.40;;
48403;SDS011;34202;52.536;6.042;2023-11-22T09:04:29;24.60;;;16.30;;
48403;SDS011;34202;52.536;6.042;2023-11-22T09:09:31;26.40;;;17.10;;
48403;SDS011;34202;52.536;6.042;2023-11-22T09:14:32;25.40;;;17.40;;
48403;SDS011;34202;52.536;6.042;2023-11-22T09:19:33;26.30;;;16.30;;
48403;SDS011;34202;52.536;6.042;2023-11-22T09:24:33;27.30;;;17.90;;
48403;SDS011;34202;52.536;6.042;2023-11-22T09:29:37;27.20;;;15.10;;
48403;SDS011;34202;52.536;6.042;2023-11-22T09:34:37;25.70;;;17.10;;
48403;SDS011;34202;52.536;6.042;2023-11-22T09:39:38;26.30;;;15.90;;
48403;SDS011;34202;52.536;6.042;2023-11-22T09:44:39;21.60;;;14.00;;
48403;SDS011;34202;52.536;6.042;2023-11-22T09:49:40;25.00;;;14.80;;
48403;SDS011;34202;52.536;6.042;2023-11-22T09:54:41;20.60;;;13.00;;
48403;SDS011;34202;52.536;6.042;2023-11-22T09:59:43;22.90;;;14.20;;
48403;SDS011;34202;52.536;6.042;2023-11-22T10:04:44;24.20;;;14.80;;
48403;SDS011;34202;52.536;6.042;2023-11-22T10:09:45;19.30;;;13.20;;
48403;SDS011;34202;52.536;6.042;2023-11-22T10:14:45;21.10;;;13.60;;
48403;SDS011;34202;52.536;6.042;2023-11-22T10:19:46;19.40;;;13.80;;
48403;SDS011;34202;52.536;6.042;2023-11-22T10:24:47;20.80;;;14.00;;
48403;SDS011;34202;52.536;6.042;2023-11-22T10:29:47;18.60;;;13.00;;
48403;SDS011;34202;52.536;6.042;2023-11-22T10:34:48;19.70;;;12.80;;
48403;SDS011;34202;52.536;6.042;2023-11-22T10:39:52;17.20;;;12.00;;
48403;SDS011;34202;52.536;6.042;2023-11-22T10:44:54;21.90;;;12.90;;
48403;SDS011;34202;52.536;6.042;2023-11-22T10:49:57;15.00;;;10.40;;
48403;SDS011;34202;52.536;6.042;2023-11-22T10:55:02;15.90;;;11.10;;
48403;SDS011;34202;52.536;6.042;2023-11-22T11:00:04;15.30;;;11.60;;
48403;SDS011;34202;52.536;6.042;2023-11-22T11:05:14;15.30;;;11.20;;
48403;SDS011;34202;52.536;6.042;2023-11-22T11:10:21;14.90;;;11.20;;
48403;SDS011;34202;52.536;6.042;2023-11-22T11:15:22;15.10;;;10.50;;
48403;SDS011;34202;52.536;6.042;2023-11-22T11:20:23;15.90;;;10.90;;
48403;SDS011;34202;52.536;6.042;2023-11-22T11:25:24;13.60;;;9.30;;
48403;SDS011;34202;52.536;6.042;2023-11-22T11:35:46;13.30;;;9.90;;
48403;SDS011;34202;52.536;6.042;2023-11-22T11:40:48;13.10;;;10.30;;
48403;SDS011;34202;52.536;6.042;2023-11-22T11:45:50;29.90;;;9.80;;
48403;SDS011;34202;52.536;6.042;2023-11-22T11:50:54;14.10;;;9.30;;
48403;SDS011;34202;52.536;6.042;2023-11-22T11:55:54;16.60;;;9.70;;
48403;SDS011;34202;52.536;6.042;2023-11-22T12:00:55;13.70;;;9.10;;
48403;SDS011;34202;52.536;6.042;2023-11-22T12:05:55;12.60;;;9.20;;
48403;SDS011;34202;52.536;6.042;2023-11-22T12:10:56;11.10;;;8.60;;
48403;SDS011;34202;52.536;6.042;2023-11-22T12:15:59;13.20;;;8.60;;
48403;SDS011;34202;52.536;6.042;2023-11-22T12:21:02;14.90;;;9.80;;
48403;SDS011;34202;52.536;6.042;2023-11-22T12:26:04;11.40;;;9.20;;
48403;SDS011;34202;52.536;6.042;2023-11-22T12:31:08;13.10;;;9.30;;
48403;SDS011;34202;52.536;6.042;2023-11-22T12:36:12;14.40;;;10.10;;
48403;SDS011;34202;52.536;6.042;2023-11-22T12:41:16;13.60;;;9.70;;
48403;SDS011;34202;52.536;6.042;2023-11-22T12:46:18;14.20;;;9.60;;
48403;SDS011;34202;52.536;6.042;2023-11-22T12:51:18;12.90;;;8.30;;
48403;SDS011;34202;52.536;6.042;2023-11-22T12:56:26;13.00;;;9.30;;
48403;SDS011;34202;52.536;6.042;2023-11-22T13:01:28;18.50;;;10.00;;
48403;SDS011;34202;52.536;6.042;2023-11-22T13:06:28;14.80;;;8.80;;
48403;SDS011;34202;52.536;6.042;2023-11-22T13:11:29;13.60;;;8.90;;
48403;SDS011;34202;52.536;6.042;2023-11-22T13:16:30;11.70;;;9.60;;
48403;SDS011;34202;52.536;6.042;2023-11-22T13:21:30;11.50;;;8.30;;
48403;SDS011;34202;52.536;6.042;2023-11-22T13:26:31;12.40;;;7.80;;
48403;SDS011;34202;52.536;6.042;2023-11-22T13:31:31;11.90;;;8.50;;
48403;SDS011;34202;52.536;6.042;2023-11-22T13:36:32;10.30;;;7.60;;
48403;SDS011;34202;52.536;6.042;2023-11-22T13:41:33;8.50;;;7.10;;
48403;SDS011;34202;52.536;6.042;2023-11-22T13:46:33;8.70;;;6.90;;
48403;SDS011;34202;52.536;6.042;2023-11-22T13:51:33;12.00;;;7.70;;
48403;SDS011;34202;52.536;6.042;2023-11-22T13:56:35;8.70;;;7.00;;
48403;SDS011;34202;52.536;6.042;2023-11-22T14:01:35;11.00;;;7.90;;
48403;SDS011;34202;52.536;6.042;2023-11-22T14:06:36;10.70;;;7.90;;
48403;SDS011;34202;52.536;6.042;2023-11-22T14:11:36;8.80;;;6.50;;
48403;SDS011;34202;52.536;6.042;2023-11-22T14:16:37;13.40;;;9.00;;
48403;SDS011;34202;52.536;6.042;2023-11-22T14:21:40;14.20;;;8.60;;
48403;SDS011;34202;52.536;6.042;2023-11-22T14:26:41;12.50;;;9.40;;
48403;SDS011;34202;52.536;6.042;2023-11-22T14:31:41;12.30;;;9.60;;
48403;SDS011;34202;52.536;6.042;2023-11-22T14:36:42;19.40;;;9.00;;
48403;SDS011;34202;52.536;6.042;2023-11-22T14:41:42;15.00;;;9.00;;
48403;SDS011;34202;52.536;6.042;2023-11-22T14:46:45;15.50;;;9.60;;
48403;SDS011;34202;52.536;6.042;2023-11-22T14:51:46;11.70;;;8.80;;
48403;SDS011;34202;52.536;6.042;2023-11-22T14:56:46;14.90;;;10.40;;
48403;SDS011;34202;52.536;6.042;2023-11-22T15:01:47;10.60;;;8.40;;
48403;SDS011;34202;52.536;6.042;2023-11-22T15:06:48;15.60;;;11.10;;
48403;SDS011;34202;52.536;6.042;2023-11-22T15:11:49;14.80;;;10.00;;
48403;SDS011;34202;52.536;6.042;2023-11-22T15:16:49;14.10;;;10.50;;
48403;SDS011;34202;52.536;6.042;2023-11-22T15:21:51;14.30;;;9.80;;
48403;SDS011;34202;52.536;6.042;2023-11-22T15:26:54;17.90;;;11.10;;
48403;SDS011;34202;52.536;6.042;2023-11-22T15:31:56;18.40;;;12.70;;
48403;SDS011;34202;52.536;6.042;2023-11-22T15:36:56;19.90;;;11.80;;
48403;SDS011;34202;52.536;6.042;2023-11-22T15:41:58;21.50;;;13.20;;
48403;SDS011;34202;52.536;6.042;2023-11-22T15:46:58;17.70;;;11.00;;
48403;SDS011;34202;52.536;6.042;2023-11-22T15:51:58;20.20;;;11.70;;
48403;SDS011;34202;52.536;6.042;2023-11-22T15:57:00;18.10;;;11.00;;
48403;SDS011;34202;52.536;6.042;2023-11-22T16:02:01;22.80;;;13.50;;
48403;SDS011;34202;52.536;6.042;2023-11-22T16:07:02;22.90;;;14.20;;
48403;SDS011;34202;52.536;6.042;2023-11-22T16:12:04;25.30;;;15.40;;
48403;SDS011;34202;52.536;6.042;2023-11-22T16:17:04;21.40;;;12.70;;
48403;SDS011;34202;52.536;6.042;2023-11-22T16:22:05;25.20;;;14.30;;
48403;SDS011;34202;52.536;6.042;2023-11-22T16:27:05;24.20;;;14.80;;
48403;SDS011;34202;52.536;6.042;2023-11-22T16:32:06;20.80;;;14.30;;
48403;SDS011;34202;52.536;6.042;2023-11-22T16:37:06;22.40;;;14.30;;
48403;SDS011;34202;52.536;6.042;2023-11-22T16:42:07;28.20;;;16.40;;
48403;SDS011;34202;52.536;6.042;2023-11-22T16:47:07;25.40;;;15.80;;
48403;SDS011;34202;52.536;6.042;2023-11-22T16:52:09;29.10;;;16.60;;
48403;SDS011;34202;52.536;6.042;2023-11-22T16:57:10;26.00;;;15.90;;
48403;SDS011;34202;52.536;6.042;2023-11-22T17:02:12;27.90;;;17.30;;
48403;SDS011;34202;52.536;6.042;2023-11-22T17:07:13;27.00;;;17.00;;
48403;SDS011;34202;52.536;6.042;2023-11-22T17:12:14;29.20;;;17.30;;
48403;SDS011;34202;52.536;6.042;2023-11-22T17:17:15;31.00;;;18.70;;
48403;SDS011;34202;52.536;6.042;2023-11-22T17:22:16;27.80;;;17.30;;
48403;SDS011;34202;52.536;6.042;2023-11-22T17:27:17;27.30;;;17.70;;
48403;SDS011;34202;52.536;6.042;2023-11-22T17:32:18;26.70;;;16.60;;
48403;SDS011;34202;52.536;6.042;2023-11-22T17:37:18;27.20;;;18.20;;
48403;SDS011;34202;52.536;6.042;2023-11-22T17:42:19;29.20;;;19.40;;
48403;SDS011;34202;52.536;6.042;2023-11-22T17:47:19;31.30;;;18.00;;
48403;SDS011;34202;52.536;6.042;2023-11-22T17:52:19;28.00;;;17.10;;
48403;SDS011;34202;52.536;6.042;2023-11-22T17:57:20;30.20;;;19.20;;
48403;SDS011;34202;52.536;6.042;2023-11-22T18:02:21;30.00;;;18.80;;
48403;SDS011;34202;52.536;6.042;2023-11-22T18:07:22;31.70;;;17.80;;
48403;SDS011;34202;52.536;6.042;2023-11-22T18:12:23;30.10;;;19.20;;
48403;SDS011;34202;52.536;6.042;2023-11-22T18:17:23;31.70;;;19.70;;
48403;SDS011;34202;52.536;6.042;2023-11-22T18:22:24;43.80;;;22.30;;
48403;SDS011;34202;52.536;6.042;2023-11-22T18:27:24;32.60;;;19.30;;
48403;SDS011;34202;52.536;6.042;2023-11-22T18:32:25;35.40;;;21.40;;
48403;SDS011;34202;52.536;6.042;2023-11-22T18:37:26;31.10;;;18.20;;
48403;SDS011;34202;52.536;6.042;2023-11-22T18:42:27;36.80;;;18.70;;
48403;SDS011;34202;52.536;6.042;2023-11-22T18:47:29;32.40;;;18.30;;
48403;SDS011;34202;52.536;6.042;2023-11-22T18:52:30;33.10;;;19.00;;
48403;SDS011;34202;52.536;6.042;2023-11-22T18:57:30;31.50;;;20.10;;
48403;SDS011;34202;52.536;6.042;2023-11-22T19:02:31;32.10;;;18.20;;
48403;SDS011;34202;52.536;6.042;2023-11-22T19:07:31;37.20;;;19.00;;
48403;SDS011;34202;52.536;6.042;2023-11-22T19:12:32;27.30;;;17.10;;
48403;SDS011;34202;52.536;6.042;2023-11-22T19:17:32;31.70;;;18.20;;
48403;SDS011;34202;52.536;6.042;2023-11-22T19:22:33;34.70;;;20.50;;
48403;SDS011;34202;52.536;6.042;2023-11-22T19:27:33;30.40;;;17.40;;
48403;SDS011;34202;52.536;6.042;2023-11-22T19:32:34;35.70;;;19.20;;
48403;SDS011;34202;52.536;6.042;2023-11-22T19:37:35;34.80;;;17.70;;
48403;SDS011;34202;52.536;6.042;2023-11-22T19:42:35;33.90;;;19.40;;
48403;SDS011;34202;52.536;6.042;2023-11-22T19:47:36;30.30;;;18.70;;
48403;SDS011;34202;52.536;6.042;2023-11-22T19:52:39;30.10;;;18.10;;
48403;SDS011;34202;52.536;6.042;2023-11-22T19:57:42;28.90;;;17.80;;
48403;SDS011;34202;52.536;6.042;2023-11-22T20:02:43;26.60;;;16.10;;
48403;SDS011;34202;52.536;6.042;2023-11-22T20:07:44;29.20;;;17.20;;
48403;SDS011;34202;52.536;6.042;2023-11-22T20:12:44;29.50;;;18.20;;
48403;SDS011;34202;52.536;6.042;2023-11-22T20:17:44;26.90;;;15.40;;
48403;SDS011;34202;52.536;6.042;2023-11-22T20:22:45;28.50;;;17.60;;
48403;SDS011;34202;52.536;6.042;2023-11-22T20:27:45;27.30;;;17.50;;
48403;SDS011;34202;52.536;6.042;2023-11-22T20:32:46;30.30;;;18.70;;
48403;SDS011;34202;52.536;6.042;2023-11-22T20:37:47;28.50;;;15.80;;
48403;SDS011;34202;52.536;6.042;2023-11-22T20:42:47;29.00;;;18.20;;
48403;SDS011;34202;52.536;6.042;2023-11-22T20:47:48;33.80;;;16.90;;
48403;SDS011;34202;52.536;6.042;2023-11-22T20:52:48;35.60;;;18.40;;
48403;SDS011;34202;52.536;6.042;2023-11-22T20:57:48;28.50;;;17.80;;
48403;SDS011;34202;52.536;6.042;2023-11-22T21:02:49;29.20;;;16.80;;
48403;SDS011;34202;52.536;6.042;2023-11-22T21:07:49;28.20;;;17.30;;
48403;SDS011;34202;52.536;6.042;2023-11-22T21:12:50;29.90;;;17.60;;
48403;SDS011;34202;52.536;6.042;2023-11-22T21:17:50;32.70;;;17.90;;
48403;SDS011;34202;52.536;6.042;2023-11-22T21:22:51;31.80;;;17.00;;
48403;SDS011;34202;52.536;6.042;2023-11-22T21:27:51;25.90;;;17.30;;
48403;SDS011;34202;52.536;6.042;2023-11-22T21:32:51;31.20;;;18.30;;
48403;SDS011;34202;52.536;6.042;2023-11-22T21:37:52;29.80;;;18.70;;
48403;SDS011;34202;52.536;6.042;2023-11-22T21:42:53;34.20;;;21.40;;
48403;SDS011;34202;52.536;6.042;2023-11-22T21:47:53;29.00;;;18.40;;
48403;SDS011;34202;52.536;6.042;2023-11-22T21:52:54;25.50;;;18.30;;
48403;SDS011;34202;52.536;6.042;2023-11-22T21:57:55;27.30;;;17.40;;
48403;SDS011;34202;52.536;6.042;2023-11-22T22:02:56;33.20;;;20.10;;
48403;SDS011;34202;52.536;6.042;2023-11-22T22:07:56;25.20;;;17.50;;
48403;SDS011;34202;52.536;6.042;2023-11-22T22:12:57;24.80;;;17.80;;
48403;SDS011;34202;52.536;6.042;2023-11-22T22:17:57;27.20;;;18.30;;
48403;SDS011;34202;52.536;6.042;2023-11-22T22:22:57;28.70;;;18.60;;
48403;SDS011;34202;52.536;6.042;2023-11-22T22:28:00;25.80;;;17.80;;
48403;SDS011;34202;52.536;6.042;2023-11-22T22:33:00;23.10;;;16.50;;
48403;SDS011;34202;52.536;6.042;2023-11-22T22:38:02;28.00;;;18.50;;
48403;SDS011;34202;52.536;6.042;2023-11-22T22:43:04;26.60;;;18.10;;
48403;SDS011;34202;52.536;6.042;2023-11-22T22:48:05;28.00;;;18.70;;
48403;SDS011;34202;52.536;6.042;2023-11-22T22:53:06;28.00;;;18.10;;
48403;SDS011;34202;52.536;6.042;2023-11-22T22:58:07;29.80;;;20.00;;
48403;SDS011;34202;52.536;6.042;2023-11-22T23:03:07;32.50;;;20.10;;
48403;SDS011;34202;52.536;6.042;2023-11-22T23:08:08;32.60;;;19.10;;
48403;SDS011;34202;52.536;6.042;2023-11-22T23:13:11;33.70;;;21.60;;
48403;SDS011;34202;52.536;6.042;2023-11-22T23:18:11;36.30;;;22.20;;
48403;SDS011;34202;52.536;6.042;2023-11-22T23:23:12;35.60;;;21.50;;
48403;SDS011;34202;52.536;6.042;2023-11-22T23:28:13;34.60;;;22.80;;
48403;SDS011;34202;52.536;6.042;2023-11-22T23:33:14;34.80;;;22.80;;
48403;SDS011;34202;52.536;6.042;2023-11-22T23:38:15;47.90;;;24.20;;
48403;SDS011;34202;52.536;6.042;2023-11-22T23:43:17;44.50;;;25.90;;
48403;SDS011;34202;52.536;6.042;2023-11-22T23:48:17;36.20;;;21.30;;
48403;SDS011;34202;52.536;6.042;2023-11-22T23:53:18;37.00;;;23.30;;
48403;SDS011;34202;52.536;6.042;2023-11-22T23:58:18;33.70;;;22.00;;
